Time;durP1;ratioP1;P1;durP2;ratioP2;P2;SDS_P1;SDS_P2;PMS_P1;PMS_P2;Temp;Humidity;BMP_temperature;BMP_pressure;BME280_temperature;BME280_humidity;BME280_pressure;Samples;Min_cycle;Max_cycle;Signal;HPM_P1;HPM_P2
2022/05/19 00:01:08;;;;;;;69.43;63.20;;;20.30;95.60;;;;;;5115708;28;20467;-79
2022/05/19 00:03:39;;;;;;;70.47;64.00;;;20.30;95.70;;;;;;5115794;28;20840;-79
2022/05/19 00:06:10;;;;;;;66.57;60.43;;;20.30;95.80;;;;;;5116795;28;20450;-79
2022/05/19 00:08:39;;;;;;;66.50;60.60;;;20.30;95.80;;;;;;5115855;28;20535;-79
2022/05/19 00:11:11;;;;;;;67.47;61.17;;;20.20;96.10;;;;;;5115644;28;20512;-79
2022/05/19 00:13:39;;;;;;;68.13;61.90;;;20.20;95.90;;;;;;5115638;28;20443;-79
2022/05/19 00:16:08;;;;;;;67.37;61.27;;;20.20;95.90;;;;;;5116020;28;20443;-79
2022/05/19 00:18:37;;;;;;;63.73;57.77;;;20.20;96.00;;;;;;5116887;28;20435;-79
2022/05/19 00:21:06;;;;;;;66.33;60.20;;;20.10;96.00;;;;;;5116858;28;20820;-79
2022/05/19 00:23:34;;;;;;;70.47;63.97;;;20.10;96.00;;;;;;5116917;28;20435;-79
2022/05/19 00:26:04;;;;;;;69.23;62.73;;;20.10;96.00;;;;;;5115156;28;20443;-79
2022/05/19 00:28:32;;;;;;;63.57;57.67;;;20.10;96.10;;;;;;5116417;28;20438;-79
2022/05/19 00:31:01;;;;;;;72.37;65.37;;;20.00;96.10;;;;;;5115870;28;20463;-79
2022/05/19 00:33:29;;;;;;;71.57;64.97;;;20.00;96.20;;;;;;5114933;28;20438;-79
2022/05/19 00:35:57;;;;;;;73.07;66.70;;;20.00;96.20;;;;;;5114689;28;20552;-79
2022/05/19 00:38:25;;;;;;;76.37;69.07;;;19.90;96.30;;;;;;5114372;28;20456;-79
2022/05/19 00:40:54;;;;;;;75.43;68.20;;;19.90;96.30;;;;;;5114589;28;20439;-79
2022/05/19 00:43:32;;;;;;;73.90;67.20;;;19.90;96.40;;;;;;5115313;28;20447;-79
2022/05/19 00:46:05;;;;;;;75.33;68.70;;;19.90;96.50;;;;;;5115404;28;20435;-79
2022/05/19 00:48:44;;;;;;;71.17;64.67;;;19.80;96.50;;;;;;5120492;28;20427;-79
2022/05/19 00:51:13;;;;;;;74.93;67.90;;;19.80;96.50;;;;;;5119003;28;20581;-79
2022/05/19 00:53:45;;;;;;;70.50;64.13;;;19.80;96.60;;;;;;5118860;28;21001;-79
2022/05/19 00:56:22;;;;;;;73.70;66.50;;;19.70;96.60;;;;;;5119252;28;20476;-79
2022/05/19 00:58:56;;;;;;;72.60;65.77;;;19.70;96.70;;;;;;5120010;28;20522;-79
2022/05/19 01:01:24;;;;;;;74.37;67.47;;;19.70;96.80;;;;;;5120507;28;20496;-79
2022/05/19 01:03:59;;;;;;;72.53;65.80;;;19.70;96.80;;;;;;5119081;28;21029;-79
2022/05/19 01:06:30;;;;;;;73.70;66.57;;;19.60;96.80;;;;;;5118850;28;20999;-79
2022/05/19 01:09:02;;;;;;;71.30;64.43;;;19.60;96.90;;;;;;5118858;28;20443;-79
2022/05/19 01:11:31;;;;;;;78.47;71.20;;;19.60;96.90;;;;;;5118763;28;20482;-79
2022/05/19 01:14:01;;;;;;;76.30;69.23;;;19.60;97.00;;;;;;5118336;28;20439;-79
2022/05/19 01:16:29;;;;;;;75.20;68.00;;;19.60;97.00;;;;;;5118127;28;20449;-79
2022/05/19 01:18:58;;;;;;;74.00;67.10;;;19.50;97.00;;;;;;5117755;28;20504;-79
2022/05/19 01:21:29;;;;;;;74.03;66.67;;;19.50;97.00;;;;;;5119267;28;20463;-79
2022/05/19 01:24:11;;;;;;;78.83;71.50;;;19.50;97.10;;;;;;5119178;28;20438;-79
2022/05/19 01:26:45;;;;;;;72.37;65.87;;;19.40;97.20;;;;;;5119677;28;20522;-79
2022/05/19 01:29:16;;;;;;;71.00;64.17;;;19.40;97.30;;;;;;5117952;28;20443;-79
2022/05/19 01:31:48;;;;;;;69.30;62.80;;;19.40;97.30;;;;;;5117718;28;20479;-79
2022/05/19 01:34:19;;;;;;;66.83;60.40;;;19.30;97.40;;;;;;5117982;28;20944;-78
2022/05/19 01:36:47;;;;;;;70.87;64.17;;;19.30;97.40;;;;;;5118021;28;20443;-79
2022/05/19 01:39:20;;;;;;;69.57;63.20;;;19.30;97.40;;;;;;5116868;28;20550;-79
2022/05/19 01:42:05;;;;;;;67.30;61.13;;;19.30;97.50;;;;;;5118117;28;20451;-78
2022/05/19 01:44:46;;;;;;;71.67;65.17;;;19.20;97.50;;;;;;5116381;28;20920;-79
2022/05/19 01:47:20;;;;;;;74.87;67.90;;;19.20;97.50;;;;;;5116581;28;20443;-79
2022/05/19 01:49:53;;;;;;;69.83;63.23;;;19.20;97.60;;;;;;5116155;28;20436;-78
2022/05/19 01:52:25;;;;;;;70.37;63.77;;;19.10;97.60;;;;;;5116127;28;20459;-79
2022/05/19 01:55:02;;;;;;;67.47;60.97;;;19.10;97.70;;;;;;5116052;28;20518;-78
2022/05/19 01:57:35;;;;;;;71.20;64.57;;;19.10;97.80;;;;;;5115756;28;20504;-79
2022/05/19 02:00:10;;;;;;;69.07;63.00;;;19.10;98.00;;;;;;5117445;28;20491;-79
2022/05/19 02:02:48;;;;;;;67.73;61.50;;;19.00;98.00;;;;;;5118000;28;20473;-78
2022/05/19 02:05:26;;;;;;;68.00;61.63;;;19.00;98.10;;;;;;5115756;28;20932;-78
2022/05/19 02:07:58;;;;;;;69.80;63.47;;;19.00;98.10;;;;;;5115318;28;20461;-78
2022/05/19 02:10:30;;;;;;;71.77;65.10;;;18.90;98.10;;;;;;5117416;28;20458;-78
2022/05/19 02:13:02;;;;;;;70.97;64.27;;;18.90;98.20;;;;;;5116997;28;20488;-78
2022/05/19 02:15:35;;;;;;;69.97;63.73;;;18.90;98.20;;;;;;5116700;28;20431;-79
2022/05/19 02:18:04;;;;;;;73.40;66.50;;;18.90;98.30;;;;;;5115567;28;20530;-78
2022/05/19 02:20:33;;;;;;;70.17;63.47;;;18.90;98.30;;;;;;5116886;28;20486;-78
2022/05/19 02:23:02;;;;;;;78.73;71.73;;;18.90;98.40;;;;;;5115078;28;20479;-79
2022/05/19 02:25:36;;;;;;;72.60;66.07;;;18.80;98.50;;;;;;5116725;28;20532;-78
2022/05/19 02:28:10;;;;;;;72.30;65.07;;;18.80;98.60;;;;;;5115099;28;21061;-79
2022/05/19 02:30:40;;;;;;;76.50;69.40;;;18.80;98.70;;;;;;5116715;28;20534;-79
2022/05/19 02:33:09;;;;;;;69.93;63.50;;;18.70;98.70;;;;;;5115406;28;20877;-78
2022/05/19 02:35:37;;;;;;;74.83;67.80;;;18.70;98.90;;;;;;5115087;28;20454;-78
2022/05/19 02:38:06;;;;;;;71.00;64.70;;;18.70;99.00;;;;;;5075571;28;1117240;-79
2022/05/19 02:40:36;;;;;;;72.97;66.27;;;18.70;99.10;;;;;;5102059;28;20450;-79
2022/05/19 02:43:16;;;;;;;68.50;62.20;;;18.70;99.30;;;;;;5117773;28;20451;-79
2022/05/19 02:45:46;;;;;;;68.10;61.80;;;18.60;99.30;;;;;;5116147;28;20435;-79
2022/05/19 02:48:16;;;;;;;68.50;62.17;;;18.70;99.40;;;;;;5117390;28;20435;-78
2022/05/19 02:50:45;;;;;;;62.13;56.30;;;18.70;99.50;;;;;;5115849;28;20443;-78
2022/05/19 02:53:13;;;;;;;62.67;57.10;;;18.60;99.60;;;;;;5116263;28;20538;-79
2022/05/19 02:55:42;;;;;;;57.97;52.57;;;18.60;99.70;;;;;;5116054;28;20449;-79
2022/05/19 02:58:12;;;;;;;59.37;53.97;;;18.60;99.80;;;;;;5115778;28;20447;-78
2022/05/19 03:00:43;;;;;;;57.77;52.57;;;18.60;99.90;;;;;;5115882;28;20459;-79
2022/05/19 03:03:12;;;;;;;55.83;50.57;;;18.50;99.90;;;;;;5117346;28;20446;-78
2022/05/19 03:05:40;;;;;;;59.50;54.07;;;18.60;99.90;;;;;;5117036;28;20439;-79
2022/05/19 03:08:10;;;;;;;56.80;51.40;;;18.50;99.90;;;;;;5117675;28;20431;-79
2022/05/19 03:10:40;;;;;;;51.00;46.40;;;18.50;99.90;;;;;;5115592;28;20547;-79
2022/05/19 03:13:16;;;;;;;50.13;45.63;;;18.50;99.90;;;;;;5116066;28;20496;-79
2022/05/19 03:15:46;;;;;;;47.53;43.20;;;18.50;99.90;;;;;;5117236;28;20445;-78
2022/05/19 03:18:15;;;;;;;47.60;43.30;;;18.50;99.90;;;;;;5116064;28;20538;-79
2022/05/19 03:20:43;;;;;;;44.80;40.60;;;18.50;99.90;;;;;;5115377;28;20975;-79
2022/05/19 03:23:12;;;;;;;43.90;39.87;;;18.50;99.90;;;;;;5115454;28;20444;-79
2022/05/19 03:25:40;;;;;;;43.20;39.47;;;18.50;99.90;;;;;;5115609;28;20461;-79
2022/05/19 03:28:08;;;;;;;44.13;40.43;;;18.40;99.90;;;;;;5115485;28;20452;-78
2022/05/19 03:30:36;;;;;;;40.43;36.83;;;18.40;99.90;;;;;;5116343;28;20470;-79
2022/05/19 03:33:06;;;;;;;43.03;39.33;;;18.40;99.90;;;;;;5115547;28;20532;-78
2022/05/19 03:35:34;;;;;;;38.93;35.57;;;18.40;99.90;;;;;;5115051;28;20539;-79
2022/05/19 03:38:03;;;;;;;39.87;36.27;;;18.40;99.90;;;;;;5114898;28;20455;-78
2022/05/19 03:40:31;;;;;;;37.43;34.00;;;18.40;99.90;;;;;;5116423;28;20412;-78
2022/05/19 03:42:59;;;;;;;35.57;32.43;;;18.40;99.90;;;;;;5116194;28;20494;-78
2022/05/19 03:45:28;;;;;;;34.30;31.10;;;18.40;99.90;;;;;;5115102;28;20447;-79
2022/05/19 03:47:56;;;;;;;33.53;30.67;;;18.40;99.90;;;;;;5114824;28;20443;-79
2022/05/19 03:50:25;;;;;;;31.53;29.03;;;18.40;99.90;;;;;;5114399;28;20500;-78
2022/05/19 03:52:54;;;;;;;30.30;27.80;;;18.40;99.90;;;;;;5114424;28;20835;-78
2022/05/19 03:55:24;;;;;;;29.27;26.80;;;18.40;99.90;;;;;;5114716;28;20443;-78
2022/05/19 03:57:54;;;;;;;28.37;25.97;;;18.40;99.90;;;;;;5114703;28;20451;-78
2022/05/19 04:00:23;;;;;;;28.93;26.60;;;18.40;99.90;;;;;;5114562;28;20439;-78
2022/05/19 04:02:52;;;;;;;26.33;24.13;;;18.40;99.90;;;;;;5114424;28;20459;-78
2022/05/19 04:05:28;;;;;;;26.80;24.50;;;18.40;99.90;;;;;;5114683;28;20442;-78
2022/05/19 04:07:57;;;;;;;25.83;23.60;;;18.40;99.90;;;;;;5116157;28;20423;-78
2022/05/19 04:10:29;;;;;;;25.27;23.17;;;18.40;99.90;;;;;;5114733;28;20432;-78
2022/05/19 04:12:57;;;;;;;24.07;21.80;;;18.40;99.90;;;;;;5114352;28;20478;-78
2022/05/19 04:15:26;;;;;;;23.37;21.20;;;18.40;99.90;;;;;;5114558;28;20484;-78
2022/05/19 04:17:54;;;;;;;21.87;20.13;;;18.50;99.90;;;;;;5114806;28;20455;-78
2022/05/19 04:20:22;;;;;;;22.37;20.37;;;18.50;99.90;;;;;;5114355;28;20526;-78
2022/05/19 04:22:52;;;;;;;22.30;20.37;;;18.50;99.90;;;;;;5114261;28;20524;-78
2022/05/19 04:25:20;;;;;;;22.80;20.70;;;18.50;99.90;;;;;;5114727;28;20454;-79
2022/05/19 04:27:49;;;;;;;20.47;18.77;;;18.60;99.90;;;;;;5114544;28;20454;-78
2022/05/19 04:30:17;;;;;;;20.67;18.80;;;18.60;99.90;;;;;;5115895;28;20518;-78
2022/05/19 04:32:45;;;;;;;20.87;18.97;;;18.60;99.90;;;;;;5114165;28;20516;-78
2022/05/19 04:35:15;;;;;;;21.43;19.40;;;18.70;99.90;;;;;;5114322;28;20439;-78
2022/05/19 04:37:44;;;;;;;20.30;18.60;;;18.70;99.90;;;;;;5114448;28;20451;-78
2022/05/19 04:40:15;;;;;;;19.77;18.20;;;18.80;99.90;;;;;;5114277;28;20940;-78
2022/05/19 04:42:44;;;;;;;19.50;18.00;;;18.80;99.90;;;;;;5115857;28;20455;-78
2022/05/19 04:45:16;;;;;;;19.00;17.47;;;18.90;99.90;;;;;;5114499;28;20435;-78
2022/05/19 04:47:45;;;;;;;18.10;16.70;;;18.90;99.90;;;;;;5114891;28;20452;-78
2022/05/19 04:50:14;;;;;;;18.17;16.77;;;19.00;99.90;;;;;;5114430;28;20534;-78
2022/05/19 04:52:43;;;;;;;16.90;15.40;;;19.00;99.90;;;;;;5114224;28;20468;-78
2022/05/19 04:55:13;;;;;;;17.30;15.80;;;19.00;99.90;;;;;;5115903;28;20472;-78
2022/05/19 04:57:43;;;;;;;17.07;15.77;;;19.10;99.90;;;;;;5114115;28;20443;-78
2022/05/19 05:00:14;;;;;;;15.77;14.27;;;19.10;99.90;;;;;;5114236;28;20514;-78
2022/05/19 05:02:42;;;;;;;16.50;15.10;;;19.10;99.90;;;;;;5114731;28;20467;-79
2022/05/19 05:05:11;;;;;;;20.60;18.80;;;19.10;99.90;;;;;;5114835;28;20439;-79
2022/05/19 05:07:39;;;;;;;19.97;18.40;;;19.20;99.90;;;;;;5115592;28;20446;-78
2022/05/19 05:10:08;;;;;;;17.57;16.07;;;19.20;99.90;;;;;;5115262;28;20528;-78
2022/05/19 05:12:38;;;;;;;20.23;18.23;;;19.20;99.90;;;;;;5114712;28;20913;-78
2022/05/19 05:15:07;;;;;;;15.87;14.67;;;19.30;99.90;;;;;;5116091;28;20533;-78
2022/05/19 05:17:35;;;;;;;14.47;12.97;;;19.30;99.90;;;;;;5114789;28;20443;-78
2022/05/19 05:20:07;;;;;;;13.53;12.53;;;19.40;99.90;;;;;;5114685;28;20440;-78
2022/05/19 05:22:36;;;;;;;13.10;12.10;;;19.40;99.90;;;;;;5114776;28;20810;-78
2022/05/19 05:25:05;;;;;;;12.83;11.77;;;19.50;99.90;;;;;;5115831;28;20462;-78
2022/05/19 05:27:34;;;;;;;13.27;12.27;;;19.50;99.90;;;;;;5115721;28;20796;-78
2022/05/19 05:30:04;;;;;;;12.50;11.50;;;19.60;99.90;;;;;;5114236;28;20467;-78
2022/05/19 05:32:33;;;;;;;13.90;12.70;;;19.60;99.90;;;;;;5115238;28;20502;-78
2022/05/19 05:35:01;;;;;;;13.53;12.50;;;19.70;99.90;;;;;;5117668;28;20447;-78
2022/05/19 05:37:30;;;;;;;14.33;13.13;;;19.70;99.90;;;;;;5116233;28;20447;-77
2022/05/19 05:39:58;;;;;;;13.87;12.50;;;19.80;99.90;;;;;;5116494;28;20439;-77
2022/05/19 05:42:26;;;;;;;11.97;10.80;;;19.90;99.90;;;;;;5116608;28;20869;-77
2022/05/19 05:44:55;;;;;;;10.70;9.80;;;20.00;99.90;;;;;;5116079;28;20435;-77
2022/05/19 05:47:28;;;;;;;10.37;9.50;;;20.20;99.90;;;;;;5116085;28;20431;-77
2022/05/19 05:50:04;;;;;;;11.53;9.97;;;20.30;99.90;;;;;;5115837;27;20538;-77
2022/05/19 05:52:33;;;;;;;9.87;9.07;;;20.50;99.90;;;;;;5117369;28;20520;-77
2022/05/19 05:55:01;;;;;;;10.70;9.60;;;20.70;99.90;;;;;;5115776;28;20491;-77
2022/05/19 05:57:29;;;;;;;9.80;9.00;;;20.90;99.90;;;;;;5117004;28;20815;-77
2022/05/19 05:59:57;;;;;;;9.30;8.70;;;21.10;99.90;;;;;;5115679;28;20841;-77
2022/05/19 06:02:27;;;;;;;8.93;8.17;;;21.30;99.90;;;;;;5115270;28;20463;-77
2022/05/19 06:04:55;;;;;;;8.90;8.20;;;21.50;99.90;;;;;;5115284;28;20454;-77
2022/05/19 06:07:23;;;;;;;9.77;8.93;;;21.80;99.90;;;;;;5115331;28;20486;-77
2022/05/19 06:09:52;;;;;;;9.20;8.40;;;22.00;99.90;;;;;;5115249;28;20809;-77
2022/05/19 06:12:20;;;;;;;8.90;7.77;;;22.20;99.90;;;;;;5114997;28;20482;-77
2022/05/19 06:14:49;;;;;;;8.17;7.47;;;22.40;99.90;;;;;;5114999;28;20458;-77
2022/05/19 06:17:18;;;;;;;7.40;6.80;;;22.70;99.90;;;;;;5115134;28;20546;-77
2022/05/19 06:19:47;;;;;;;7.30;6.63;;;22.80;99.90;;;;;;5114990;28;20444;-77
2022/05/19 06:22:15;;;;;;;7.33;6.73;;;23.00;99.90;;;;;;5114931;28;20558;-77
2022/05/19 06:24:43;;;;;;;8.63;6.87;;;23.10;99.90;;;;;;5114858;28;20526;-77
2022/05/19 06:27:12;;;;;;;7.20;6.50;;;23.30;99.90;;;;;;5114755;28;20452;-77
2022/05/19 06:29:40;;;;;;;7.37;6.70;;;23.40;99.90;;;;;;5114786;28;20447;-77
2022/05/19 06:32:09;;;;;;;5.97;5.37;;;23.50;99.90;;;;;;5114706;28;20469;-77
2022/05/19 06:34:40;;;;;;;6.20;5.70;;;23.70;99.90;;;;;;5116654;28;20447;-77
2022/05/19 06:37:09;;;;;;;6.13;5.73;;;24.00;99.90;;;;;;5116489;28;20432;-77
2022/05/19 06:39:38;;;;;;;6.40;5.90;;;24.20;99.90;;;;;;5114696;28;20463;-77
2022/05/19 06:42:14;;;;;;;6.03;5.63;;;24.30;99.70;;;;;;5115975;28;20516;-77
2022/05/19 06:44:44;;;;;;;7.10;6.20;;;24.50;99.40;;;;;;5113136;28;20917;-77
2022/05/19 06:47:14;;;;;;;6.17;5.67;;;24.80;99.20;;;;;;5114637;28;20454;-77
2022/05/19 06:49:44;;;;;;;6.70;6.10;;;25.00;98.90;;;;;;5114303;28;20838;-77
2022/05/19 06:52:15;;;;;;;5.97;5.47;;;25.30;98.70;;;;;;5115401;28;20980;-76
2022/05/19 06:54:46;;;;;;;5.87;5.37;;;25.60;98.40;;;;;;5116462;28;20504;-78
2022/05/19 06:57:15;;;;;;;6.13;5.30;;;25.80;97.90;;;;;;5115415;28;20435;-77
2022/05/19 06:59:44;;;;;;;8.77;7.57;;;26.10;97.60;;;;;;5114194;28;20575;-77
2022/05/19 07:02:12;;;;;;;6.17;5.67;;;26.20;97.20;;;;;;5115469;27;20542;-77
2022/05/19 07:04:43;;;;;;;5.53;5.03;;;26.50;97.00;;;;;;5114660;28;21043;-76
2022/05/19 07:07:12;;;;;;;6.23;5.13;;;26.60;96.60;;;;;;5114431;28;20453;-77
2022/05/19 07:09:42;;;;;;;5.70;5.17;;;26.80;96.30;;;;;;5115538;28;20538;-77
2022/05/19 07:12:11;;;;;;;5.70;5.30;;;27.00;96.00;;;;;;5114146;28;20471;-77
2022/05/19 07:14:40;;;;;;;5.57;5.00;;;27.20;95.60;;;;;;5114108;28;20473;-77
2022/05/19 07:17:09;;;;;;;5.57;5.00;;;27.30;95.60;;;;;;5114472;28;20443;-77
2022/05/19 07:22:25;;;;;;;5.30;4.90;;;27.60;94.80;;;;;;5115746;28;20451;-77
2022/05/19 07:24:55;;;;;;;4.90;4.53;;;27.80;94.60;;;;;;5114324;28;20887;-77
2022/05/19 07:27:23;;;;;;;5.70;5.30;;;28.00;94.20;;;;;;5114035;28;20852;-77
2022/05/19 07:29:51;;;;;;;4.90;4.50;;;28.10;94.00;;;;;;5114406;28;20443;-78
2022/05/19 07:32:21;;;;;;;9.90;4.80;;;28.30;93.70;;;;;;5114934;28;20972;-77
2022/05/19 07:34:49;;;;;;;6.10;5.57;;;28.40;93.10;;;;;;5114071;28;20845;-76
2022/05/19 07:37:18;;;;;;;4.83;4.30;;;28.50;92.80;;;;;;5113878;28;20943;-77
2022/05/19 07:39:46;;;;;;;4.47;4.07;;;28.70;92.50;;;;;;5114952;28;20452;-77
2022/05/19 07:42:15;;;;;;;5.40;4.40;;;28.80;92.20;;;;;;5114628;28;20451;-77
2022/05/19 07:44:46;;;;;;;5.13;4.70;;;28.80;91.70;;;;;;5114053;28;20443;-77
2022/05/19 07:47:15;;;;;;;7.33;5.50;;;28.80;91.40;;;;;;5116776;28;20436;-80
2022/05/19 07:49:44;;;;;;;4.50;4.10;;;28.80;90.90;;;;;;5115335;28;20455;-78
2022/05/19 07:52:13;;;;;;;7.53;4.40;;;28.80;90.50;;;;;;5114913;28;20459;-77
2022/05/19 07:54:41;;;;;;;5.33;4.90;;;28.80;90.40;;;;;;5115218;28;20498;-78
2022/05/19 07:57:11;;;;;;;5.33;4.70;;;28.90;90.30;;;;;;5114202;28;20446;-78
2022/05/19 07:59:41;;;;;;;12.43;6.23;;;29.00;90.10;;;;;;5114361;28;20494;-77
2022/05/19 08:02:09;;;;;;;11.20;5.80;;;29.00;89.00;;;;;;5113394;28;20887;-77
2022/05/19 08:04:38;;;;;;;8.63;4.97;;;29.00;88.50;;;;;;5116494;28;20535;-78
2022/05/19 08:07:06;;;;;;;5.43;4.87;;;29.00;88.20;;;;;;5117368;28;20439;-78
2022/05/19 08:15:34;;;;;;;5.43;4.90;;;29.00;87.90;;;;;;5113187;28;20471;-78
2022/05/19 08:18:05;;;;;;;6.30;4.60;;;29.20;87.50;;;;;;5113889;28;20443;-78
2022/05/19 08:20:35;;;;;;;5.37;4.87;;;29.20;87.40;;;;;;5115459;28;20901;-78
2022/05/19 08:23:06;;;;;;;5.80;5.30;;;29.20;87.00;;;;;;5115148;27;20467;-78
2022/05/19 08:25:35;;;;;;;8.77;7.90;;;29.30;86.80;;;;;;5116054;28;20435;-78
2022/05/19 08:28:04;;;;;;;5.40;4.90;;;29.30;86.80;;;;;;5115373;28;20457;-78
2022/05/19 08:30:35;;;;;;;5.30;4.90;;;29.40;86.60;;;;;;5114826;28;20450;-79
2022/05/19 08:33:06;;;;;;;5.90;5.50;;;29.40;86.20;;;;;;5113287;28;20528;-77
2022/05/19 08:35:34;;;;;;;12.00;11.00;;;29.40;85.50;;;;;;5115113;28;20455;-79
2022/05/19 08:38:03;;;;;;;6.13;5.10;;;29.30;85.20;;;;;;5115173;28;20458;-79
2022/05/19 08:40:37;;;;;;;5.47;5.07;;;29.30;85.40;;;;;;5115885;28;20416;-78
2022/05/19 08:43:05;;;;;;;5.17;4.67;;;29.20;85.30;;;;;;5114954;28;20808;-78
2022/05/19 08:45:40;;;;;;;6.50;5.83;;;29.20;85.60;;;;;;5116570;28;20439;-79
2022/05/19 08:48:13;;;;;;;5.03;4.67;;;29.20;85.50;;;;;;5113889;28;20898;-77
2022/05/19 08:50:50;;;;;;;5.30;4.90;;;29.20;85.00;;;;;;5112859;28;20492;-77
2022/05/19 08:53:25;;;;;;;5.97;5.47;;;29.20;85.00;;;;;;5113434;28;20435;-77
2022/05/19 08:56:00;;;;;;;4.60;4.30;;;29.20;84.70;;;;;;5115212;28;20455;-78
2022/05/19 08:58:40;;;;;;;5.40;5.00;;;29.20;84.90;;;;;;5114417;28;20506;-77
2022/05/19 09:01:18;;;;;;;8.53;5.83;;;29.30;84.70;;;;;;5112770;28;20984;-78
2022/05/19 09:03:58;;;;;;;6.17;4.50;;;29.30;84.60;;;;;;5113728;28;20443;-77
2022/05/19 09:09:41;;;;;;;5.60;5.10;;;29.30;83.50;;;;;;5118739;28;20499;-77
2022/05/19 09:12:13;;;;;;;6.43;5.87;;;29.30;83.80;;;;;;5117971;28;20482;-77
2022/05/19 09:14:41;;;;;;;6.30;5.80;;;29.30;83.60;;;;;;5118059;28;20508;-78
2022/05/19 09:17:14;;;;;;;5.87;5.27;;;29.30;83.50;;;;;;5119429;28;20442;-78
2022/05/19 09:19:47;;;;;;;5.90;5.40;;;29.30;83.50;;;;;;5118318;28;20447;-78
2022/05/19 09:22:20;;;;;;;5.93;5.37;;;29.30;83.50;;;;;;5118884;28;20886;-78
2022/05/19 09:24:50;;;;;;;5.27;4.87;;;29.40;83.70;;;;;;5117441;28;20483;-78
2022/05/19 09:27:20;;;;;;;5.30;4.87;;;29.40;83.80;;;;;;5118958;28;20950;-78
2022/05/19 09:29:51;;;;;;;7.20;6.47;;;29.40;83.70;;;;;;5117658;28;20435;-77
2022/05/19 09:32:26;;;;;;;6.13;5.47;;;29.50;83.70;;;;;;5118735;27;20486;-77
2022/05/19 09:35:04;;;;;;;11.30;10.30;;;29.50;83.70;;;;;;5118086;28;20508;-77
2022/05/19 09:37:45;;;;;;;7.53;6.60;;;29.50;84.20;;;;;;5121979;28;20515;-78
2022/05/19 09:40:22;;;;;;;7.27;6.70;;;29.60;84.10;;;;;;5120541;28;20874;-78
2022/05/19 09:43:19;;;;;;;7.00;6.40;;;29.60;83.80;;;;;;5122024;28;20463;-78
2022/05/19 09:45:53;;;;;;;5.70;5.20;;;29.70;83.60;;;;;;5120965;28;20439;-78
2022/05/19 09:48:27;;;;;;;6.40;5.80;;;29.80;83.50;;;;;;5121974;28;20415;-78
2022/05/19 09:51:03;;;;;;;7.67;5.20;;;29.90;82.90;;;;;;5121189;28;20416;-78
2022/05/19 09:53:38;;;;;;;5.23;4.90;;;29.90;82.10;;;;;;5119884;28;20457;-78
2022/05/19 09:56:12;;;;;;;6.03;5.63;;;30.00;82.20;;;;;;5121607;28;20505;-78
2022/05/19 09:58:45;;;;;;;5.83;5.27;;;30.00;82.20;;;;;;5119624;28;20453;-78
2022/05/19 10:01:19;;;;;;;5.40;5.00;;;30.10;82.20;;;;;;5121387;28;20459;-78
2022/05/19 10:03:56;;;;;;;5.90;5.50;;;30.20;81.80;;;;;;5119669;28;20504;-78
2022/05/19 10:06:36;;;;;;;5.63;5.13;;;30.30;81.50;;;;;;5118807;28;20477;-78
2022/05/19 10:09:11;;;;;;;7.30;5.20;;;30.30;80.60;;;;;;5119180;28;20439;-78
2022/05/19 10:11:49;;;;;;;5.17;4.87;;;30.30;80.60;;;;;;5118097;28;20527;-78
2022/05/19 10:14:20;;;;;;;5.90;5.40;;;30.30;79.90;;;;;;5121134;28;20463;-78
2022/05/19 10:17:01;;;;;;;5.37;4.97;;;30.30;79.60;;;;;;5129453;28;20420;-78
2022/05/19 10:19:44;;;;;;;6.07;5.23;;;30.30;79.60;;;;;;5123748;28;20447;-77
2022/05/19 10:22:30;;;;;;;4.90;4.30;;;30.40;79.60;;;;;;5117244;28;20455;-77
2022/05/19 10:25:16;;;;;;;5.27;4.60;;;30.50;79.40;;;;;;5115415;28;20793;-77
2022/05/19 10:31:04;;;;;;;5.43;5.03;;;30.70;79.00;;;;;;5114973;28;20443;-77
2022/05/19 10:34:02;;;;;;;5.43;5.07;;;30.70;78.80;;;;;;5116359;28;20427;-77
2022/05/19 10:36:39;;;;;;;5.70;5.30;;;30.70;78.50;;;;;;5116147;28;20519;-76
2022/05/19 10:39:26;;;;;;;5.10;4.70;;;30.70;77.80;;;;;;5116425;28;20480;-77
2022/05/19 10:42:04;;;;;;;5.23;4.83;;;30.60;77.50;;;;;;5116220;28;20827;-77
2022/05/19 10:44:51;;;;;;;5.50;5.07;;;30.70;77.80;;;;;;5116410;28;20442;-77
2022/05/19 10:47:32;;;;;;;10.40;5.27;;;30.70;77.60;;;;;;5116295;28;20457;-77
2022/05/19 10:50:12;;;;;;;5.80;5.30;;;30.80;77.60;;;;;;5114756;28;20872;-77
2022/05/19 10:53:09;;;;;;;7.00;6.40;;;30.90;77.70;;;;;;5114820;28;20463;-77
2022/05/19 10:55:44;;;;;;;6.23;5.83;;;30.90;78.20;;;;;;5085750;28;20551;-77
2022/05/19 10:58:41;;;;;;;6.70;6.20;;;30.90;78.30;;;;;;5114672;28;20940;-77
2022/05/19 11:01:19;;;;;;;6.30;5.77;;;30.90;78.10;;;;;;5113868;28;20827;-77
2022/05/19 11:04:11;;;;;;;7.23;6.10;;;30.80;78.50;;;;;;5114194;28;20443;-77
2022/05/19 11:07:18;;;;;;;5.97;5.47;;;30.80;78.60;;;;;;5114815;28;20974;-77
2022/05/19 11:09:58;;;;;;;6.33;5.70;;;30.80;78.80;;;;;;5104980;28;20548;-78
2022/05/19 11:12:36;;;;;;;6.33;5.73;;;30.90;78.90;;;;;;5116930;28;20497;-78
2022/05/19 11:15:21;;;;;;;7.80;7.20;;;30.90;78.90;;;;;;5116527;28;20495;-77
2022/05/19 11:18:01;;;;;;;7.77;6.30;;;31.00;78.90;;;;;;5116600;28;20459;-78
2022/05/19 11:20:33;;;;;;;9.03;6.87;;;31.00;79.20;;;;;;5114804;28;20491;-78
2022/05/19 11:23:08;;;;;;;7.07;6.47;;;31.00;79.00;;;;;;5115740;28;20454;-77
2022/05/19 11:28:38;;;;;;;7.90;6.57;;;30.90;79.10;;;;;;5116553;28;20420;-77
2022/05/19 11:31:12;;;;;;;8.70;7.90;;;30.80;79.30;;;;;;5113960;28;20899;-77
2022/05/19 11:33:43;;;;;;;7.50;6.90;;;30.80;79.20;;;;;;5114280;28;20483;-77
2022/05/19 11:36:18;;;;;;;8.13;7.40;;;30.80;79.10;;;;;;5114265;28;20459;-77
2022/05/19 11:38:52;;;;;;;7.73;7.00;;;30.80;79.10;;;;;;5116505;28;20817;-78
2022/05/19 11:41:25;;;;;;;6.90;6.40;;;30.70;79.30;;;;;;5114398;28;20554;-78
2022/05/19 11:44:00;;;;;;;6.60;6.00;;;30.70;79.30;;;;;;5114844;28;20439;-78
2022/05/19 11:46:33;;;;;;;7.40;6.60;;;30.70;79.00;;;;;;5114967;28;20439;-78
2022/05/19 11:57:41;;;;;;;6.53;6.00;;;30.70;78.70;;;;;;5115604;28;20447;-77
2022/05/19 12:00:11;;;;;;;7.07;6.43;;;30.80;78.50;;;;;;5114391;28;20439;-77
2022/05/19 12:02:48;;;;;;;7.13;6.53;;;30.80;78.20;;;;;;5115916;28;20512;-77
2022/05/19 12:05:24;;;;;;;6.20;5.70;;;30.80;77.80;;;;;;5115913;28;20502;-77
2022/05/19 12:07:55;;;;;;;7.40;6.80;;;30.80;78.50;;;;;;5115198;28;20414;-77
2022/05/19 12:10:31;;;;;;;6.97;6.37;;;30.80;77.60;;;;;;5112890;28;20443;-77
2022/05/19 12:13:03;;;;;;;6.23;5.63;;;30.80;77.80;;;;;;5112784;28;20466;-77
2022/05/19 12:15:51;;;;;;;6.83;6.33;;;30.80;77.70;;;;;;5112742;28;20451;-77
2022/05/19 12:18:35;;;;;;;6.10;5.60;;;30.80;77.30;;;;;;5114915;28;20476;-77
2022/05/19 12:21:31;;;;;;;6.07;5.57;;;30.80;77.20;;;;;;5097733;28;20542;-77
2022/05/19 12:24:08;;;;;;;6.53;6.03;;;30.80;77.40;;;;;;5103809;28;20983;-77
2022/05/19 12:26:50;;;;;;;6.37;5.80;;;30.80;77.30;;;;;;5114413;28;20416;-77
2022/05/19 12:29:33;;;;;;;6.00;5.40;;;30.80;77.40;;;;;;5114279;28;20456;-77
2022/05/19 12:32:10;;;;;;;6.57;5.73;;;30.80;77.40;;;;;;5112629;28;20514;-77
2022/05/19 12:34:43;;;;;;;5.83;5.17;;;30.80;77.80;;;;;;5113193;28;20435;-77
2022/05/19 12:37:41;;;;;;;6.33;5.70;;;30.80;78.10;;;;;;5114029;28;20479;-77
2022/05/19 12:40:25;;;;;;;6.90;6.10;;;30.90;78.30;;;;;;5112668;28;20578;-77
2022/05/19 12:43:20;;;;;;;5.70;5.10;;;30.90;78.10;;;;;;5117702;28;20451;-77
2022/05/19 12:45:52;;;;;;;8.33;6.10;;;30.90;78.30;;;;;;5116956;28;20446;-77
2022/05/19 12:48:43;;;;;;;6.83;6.07;;;30.90;78.10;;;;;;5118186;28;20454;-77
2022/05/19 12:51:17;;;;;;;7.70;5.90;;;30.90;77.90;;;;;;5118480;28;20467;-77
2022/05/19 12:54:02;;;;;;;5.60;5.10;;;30.90;77.80;;;;;;5116776;28;20445;-77
2022/05/19 12:57:00;;;;;;;5.40;4.80;;;30.90;77.20;;;;;;5116438;28;20463;-77
2022/05/19 12:59:49;;;;;;;4.83;4.43;;;31.00;76.60;;;;;;5116419;28;20520;-77
2022/05/19 13:02:30;;;;;;;5.00;4.60;;;31.00;77.00;;;;;;5116407;28;20506;-77
2022/05/19 13:05:04;;;;;;;5.30;4.90;;;31.10;77.00;;;;;;5118397;28;20447;-77
2022/05/19 13:07:37;;;;;;;5.67;4.83;;;31.10;76.70;;;;;;5120506;28;20417;-77
2022/05/19 13:10:17;;;;;;;6.27;5.20;;;31.20;76.70;;;;;;5119630;28;20430;-77
2022/05/19 13:12:59;;;;;;;5.20;4.80;;;31.20;76.50;;;;;;5119394;28;20554;-77
2022/05/19 13:15:28;;;;;;;5.93;5.43;;;31.20;76.40;;;;;;5118128;28;20475;-77
2022/05/19 13:18:01;;;;;;;4.97;4.57;;;31.20;76.30;;;;;;5118460;28;20575;-77
2022/05/19 13:20:34;;;;;;;7.03;4.90;;;31.30;76.90;;;;;;5118897;28;20416;-77
2022/05/19 13:23:20;;;;;;;5.30;4.77;;;31.30;76.30;;;;;;5117387;28;20520;-77
2022/05/19 13:25:50;;;;;;;7.50;4.97;;;31.40;76.30;;;;;;5117244;28;20431;-77
2022/05/19 13:31:19;;;;;;;5.77;5.37;;;31.30;75.70;;;;;;5117647;28;20494;-77
2022/05/19 13:33:51;;;;;;;5.47;4.97;;;31.30;75.90;;;;;;5117659;28;20446;-77
2022/05/19 13:36:30;;;;;;;5.50;5.10;;;31.30;76.00;;;;;;5117520;28;20459;-77